CGA weather

Public forecast

Using degrees Fahrenheit for public forecast. Weather courtesy of forecast.io.

Closest aviation weather report (METAR) to Craig Seaplane Base

Closest report is Klawock Airport, 6.5 nm (12.0 km) NNE. Retrieved 2020/08/14 02:39 UTC (0 seconds ago):

PAKW 140239Z AUTO 00000KT 4SM -RA BR BKN010 BKN033 OVC042 13/12 A3004 RMK AO2 RAB08 P0000 T01280117 TSNO

Closest aviation forecast (TAF) to Craig Seaplane Base

Closest forecast is Klawock Airport, 6.5 nm (12.0 km) NNE. Retrieved 2020-08-14 00:40 UTC (2 hours ago):

TAF PAKW 132337Z 1400/1424 VRB05KT P6SM -SHRA SCT025 OVC035 FM141000 05004KT 5SM -RA SCT007 OVC015 FM141400 09007KT 3SM -RA BKN007 OVC015 AMD LTD TO CLD VIS AND WIND